• Join FlightAware (Why Join?)
  • Login
  • US Flag 
04:57PM EDT


 

Airport Tracker/Info


-or-


 

Live Flight TrackerFlight Track Log ✈ THY2469 ✈ 16-Jun-2013 ✈ LTAF / ADA - LTBA / IST

Flight Track Log - Related Links

Times and Time Zones

All times are in EDT time to prevent confusion due to time zone crossing. See the THY2469 flight status page for this flight to view local times or setup timezone preferences in your user account.

Time Position Orientation Groundspeed Altitude Reporting Facility
EDT Latitude Longitude Course Direction KTS MPH feet Rate Location/Type
01:29PM 37.4499 34.5876 311° West  Level Estimated
01:30PM 37.5081 34.5004 310° West  Level Estimated
01:31PM 37.5662 34.4131 310° West  Level Estimated
01:32PM 37.6243 34.3256 310° West  Level Estimated
01:33PM 37.6823 34.2380 310° West  Level Estimated
01:34PM 37.7402 34.1503 310° West  Level Estimated
01:35PM 37.7981 34.0624 310° West  Level Estimated
01:36PM 37.8559 33.9744 310° West  Level Estimated
01:37PM 37.9136 33.8862 310° West  Level Estimated
01:38PM 37.9713 33.7979 310° West  Level Estimated
01:39PM 38.0289 33.7095 310° West  Level Estimated
01:40PM 38.0864 33.6209 310° West  Level Estimated
01:41PM 38.1439 33.5322 309° West  Level Estimated
01:42PM 38.2013 33.4433 309° West  Level Estimated
01:43PM 38.2586 33.3543 309° West  Level Estimated
01:44PM 38.3159 33.2652 309° West  Level Estimated
01:45PM 38.3731 33.1759 309° West  Level Estimated
01:46PM 38.4302 33.0865 309° West  Level Estimated
01:47PM 38.4873 32.9969 309° West  Level Estimated
01:48PM 38.5442 32.9072 309° West  Level Estimated
01:49PM 38.6012 32.8174 309° West  Level Estimated
01:50PM 38.6580 32.7274 309° West  Level Estimated
01:51PM 38.7148 32.6372 309° West  Level Estimated
01:52PM 38.7715 32.5470 309° West  Level Estimated
01:53PM 38.8282 32.4566 309° West  Level Estimated
01:54PM 38.8848 32.3660 309° West  Level Estimated
01:55PM 38.9413 32.2753 309° West  Level Estimated
01:56PM 38.9977 32.1844 309° West  Level Estimated
01:57PM 39.0541 32.0935 309° West  Level Estimated
01:58PM 39.1104 32.0023 309° West  Level Estimated
01:59PM 39.1666 31.9110 308° West  Level Estimated
02:00PM 39.2228 31.8196 308° West  Level Estimated
02:01PM 39.2788 31.7280 308° West  Level Estimated
02:02PM 39.3348 31.6363 308° West  Level Estimated
02:03PM 39.3908 31.5444 308° West  Level Estimated
02:04PM 39.4467 31.4524 308° West  Level Estimated
02:05PM 39.5024 31.3603 308° West  Level Estimated
02:06PM 39.5582 31.2679 308° West  Level Estimated
02:07PM 39.6138 31.1755 308° West  Level Estimated
02:08PM 39.6694 31.0829 308° West  Level Estimated
02:09PM 39.7249 30.9901 308° West  Level Estimated
02:10PM 39.7803 30.8972 308° West  Level Estimated
02:11PM 39.8357 30.8041 308° West  Level Estimated
02:12PM 39.8909 30.7109 308° West  Level Estimated
02:13PM 39.9461 30.6176 308° West  Level Estimated
02:14PM 40.0013 30.5241 308° West  Level Estimated
02:15PM 40.0563 30.4304 308° West  Level Estimated
02:16PM 40.1113 30.3366 307° West  Level Estimated
02:17PM 40.1662 30.2426 307° West  Level Estimated
02:18PM 40.2210 30.1485 307° West  Level Estimated
02:19PM 40.2758 30.0542 307° West  Level Estimated
02:20PM 40.3304 29.9598 307° West  Level Estimated
02:21PM 40.3851 29.8652 307° West  Level Estimated
02:22PM 40.4396 29.7705 307° West  Level Estimated
02:23PM 40.4940 29.6756 307° West  Level Estimated
02:24PM 40.5484 29.5806 307° West  Level Estimated
02:25PM 40.6026 29.4854 307° West  Level Estimated
02:26PM 40.6569 29.3901 307° West  Level Estimated
02:27PM 40.7110 29.2946 307° West  Level Estimated
02:28PM 40.7650 29.1989 307° West  Level Estimated
02:29PM 40.8190 29.1031 307° West  Level Estimated
02:30PM 40.8729 29.0072 307° West  Level Estimated
02:31PM 40.9267 28.9110 307° West  Level Estimated
02:32PM 40.9769 28.8211 306° West  Level Estimated
02:33PM 40.9769 28.8211 21° North  Level Estimated
02:34PM 40.9769 28.8211 21° North  Level Estimated
02:35PM 40.9769 28.8211 21° North  Level Estimated
02:36PM 40.9769 28.8211 21° North  Level Estimated
02:37PM 40.9769 28.8211 21° North  Level Estimated
02:38PM 40.9769 28.8211 21° North  Level Estimated